createdAt,value
2017-06-21T00:02:01.294Z,83.63
2017-06-21T00:06:58.477Z,83.25
2017-06-21T00:11:53.998Z,83.72
2017-06-21T00:16:50.776Z,84.30
2017-06-21T00:21:48.331Z,83.15
2017-06-21T00:26:44.499Z,84.49
2017-06-21T00:31:42.071Z,85.02
2017-06-21T00:36:38.448Z,85.79
2017-06-21T00:41:33.844Z,86.08
2017-06-21T00:46:29.967Z,85.60
2017-06-21T00:51:25.809Z,86.36
2017-06-21T00:56:21.961Z,86.36
2017-06-21T01:01:18.383Z,86.99
2017-06-21T01:06:14.208Z,87.37
2017-06-21T01:11:10.773Z,87.95
2017-06-21T01:16:06.579Z,87.56
2017-06-21T01:21:03.776Z,87.76
2017-06-21T01:25:58.999Z,88.13
2017-06-21T01:30:55.815Z,88.43
2017-06-21T01:35:51.672Z,88.67
2017-06-21T01:40:48.943Z,90.20
2017-06-21T01:45:44.601Z,88.95
2017-06-21T01:50:41.154Z,88.95
2017-06-21T01:55:37.650Z,90.58
2017-06-21T02:00:33.680Z,90.10
2017-06-21T02:05:29.931Z,90.30
2017-06-21T02:10:26.882Z,90.58
2017-06-21T02:15:22.455Z,91.39
2017-06-21T02:20:18.059Z,91.59
2017-06-21T02:25:13.957Z,91.39
2017-06-21T02:30:09.835Z,91.78
2017-06-21T02:35:05.671Z,92.25
2017-06-21T02:40:01.490Z,92.93
2017-06-21T02:44:57.555Z,92.93
2017-06-21T02:49:54.193Z,92.54
2017-06-21T02:54:51.429Z,93.31
2017-06-21T02:59:46.831Z,93.45
2017-06-21T03:04:42.748Z,92.64
2017-06-21T03:09:39.935Z,93.02
2017-06-21T03:14:35.574Z,93.50
2017-06-21T03:19:32.509Z,93.16
2017-06-21T03:24:28.000Z,93.84
2017-06-21T03:29:23.948Z,94.12
2017-06-21T03:34:20.176Z,93.79
2017-06-21T03:39:16.424Z,94.17
2017-06-21T03:44:12.734Z,93.31
2017-06-21T03:49:08.158Z,94.31
2017-06-21T03:54:04.638Z,93.88
2017-06-21T03:59:00.904Z,93.93
2017-06-21T04:03:57.962Z,94.79
2017-06-21T04:08:53.313Z,94.22
2017-06-21T04:13:49.123Z,94.41
2017-06-21T04:18:45.935Z,94.02
2017-06-21T04:23:42.046Z,93.50
2017-06-21T04:28:38.100Z,93.93
2017-06-21T04:33:33.992Z,93.02
2017-06-21T04:38:30.464Z,90.87
2017-06-21T04:43:28.654Z,89.67
2017-06-21T04:48:24.371Z,88.71
2017-06-21T04:53:20.367Z,86.46
2017-06-21T04:58:18.142Z,86.46
2017-06-21T05:03:13.975Z,86.55
2017-06-21T05:08:11.280Z,85.83
2017-06-21T05:13:07.215Z,83.58
2017-06-21T05:18:03.556Z,82.18
2017-06-21T05:22:59.806Z,82.23
2017-06-21T05:27:55.849Z,78.99
2017-06-21T05:32:52.028Z,80.11
2017-06-21T05:37:47.821Z,79.67
2017-06-21T05:42:45.310Z,76.98
2017-06-21T05:47:41.441Z,75.04
2017-06-21T05:52:37.725Z,76.59
2017-06-21T05:57:34.151Z,77.84
2017-06-21T06:02:29.476Z,78.00
2017-06-21T06:07:25.395Z,79.59
2017-06-21T06:12:22.377Z,81.46
2017-06-21T06:17:17.427Z,81.08
2017-06-21T06:22:12.849Z,82.04
2017-06-21T06:27:08.305Z,81.98
2017-06-21T06:32:05.333Z,80.55
2017-06-21T06:37:01.120Z,80.26
2017-06-21T06:41:56.905Z,81.41
2017-06-21T06:46:52.646Z,81.22
2017-06-21T06:51:48.508Z,81.79
2017-06-21T06:56:44.779Z,80.20
2017-06-21T07:01:41.799Z,80.11
2017-06-21T07:06:37.699Z,78.00
2017-06-21T07:11:33.490Z,80.01
2017-06-21T07:16:29.388Z,78.42
2017-06-21T07:21:26.377Z,78.77
2017-06-21T07:26:22.245Z,78.09
2017-06-21T07:31:18.907Z,78.90
2017-06-21T07:36:14.878Z,77.36
2017-06-21T07:41:11.011Z,76.82
2017-06-21T07:46:08.036Z,75.52
2017-06-21T07:51:05.899Z,71.75
2017-06-21T07:56:05.681Z,69.57
2017-06-21T08:01:04.326Z,67.71
2017-06-21T08:06:01.423Z,67.00
2017-06-21T08:10:58.164Z,66.55
2017-06-21T08:15:55.029Z,65.37
2017-06-21T08:20:51.937Z,64.15
2017-06-21T08:25:49.566Z,60.18
2017-06-21T08:30:46.775Z,58.83
2017-06-21T08:35:43.423Z,60.71
2017-06-21T08:40:40.009Z,61.93
2017-06-21T08:45:35.832Z,59.19
2017-06-21T08:50:32.179Z,58.70
2017-06-21T08:55:29.071Z,59.38
2017-06-21T09:00:26.041Z,57.87
2017-06-21T09:05:22.441Z,59.55
2017-06-21T09:10:18.469Z,59.45
2017-06-21T09:15:14.616Z,58.03
2017-06-21T09:20:10.799Z,58.45
2017-06-21T09:25:07.462Z,56.09
2017-06-21T09:30:04.005Z,55.92
2017-06-21T09:35:01.089Z,55.92
2017-06-21T09:39:58.079Z,55.99
2017-06-21T09:44:54.262Z,54.71
2017-06-21T09:49:50.033Z,55.05
2017-06-21T09:54:46.500Z,56.37
2017-06-21T09:59:42.312Z,54.44
2017-06-21T10:04:37.309Z,55.60
2017-06-21T10:09:33.775Z,54.30
2017-06-21T10:14:30.476Z,54.95
2017-06-21T10:19:26.853Z,54.63
2017-06-21T10:24:22.912Z,53.53
2017-06-21T10:29:19.209Z,54.57
2017-06-21T10:34:16.430Z,53.81
2017-06-21T10:39:11.682Z,56.79
2017-06-21T10:44:07.780Z,54.62
2017-06-21T10:49:05.153Z,53.89
2017-06-21T10:54:00.907Z,54.21
2017-06-21T10:58:56.883Z,53.00
2017-06-21T11:03:54.009Z,51.47
2017-06-21T11:08:50.171Z,51.86
2017-06-21T11:13:49.346Z,50.26
2017-06-21T11:18:46.756Z,51.35
2017-06-21T11:23:45.222Z,50.53
2017-06-21T11:28:41.463Z,50.72
2017-06-21T11:33:41.599Z,49.22
2017-06-21T11:38:39.072Z,49.97
2017-06-21T11:43:33.215Z,51.09
2017-06-21T11:48:27.671Z,51.16
2017-06-21T11:53:25.448Z,50.82
2017-06-21T11:58:23.880Z,48.57
2017-06-21T12:03:21.675Z,48.78
2017-06-21T12:08:18.403Z,46.74
2017-06-21T12:13:15.104Z,49.99
2017-06-21T12:18:10.762Z,49.54
2017-06-21T12:23:07.924Z,50.75
2017-06-21T12:28:03.870Z,50.60
2017-06-21T12:33:00.855Z,49.34
2017-06-21T12:37:56.228Z,50.48
2017-06-21T12:42:51.942Z,49.92
2017-06-21T12:47:48.185Z,49.87
2017-06-21T12:52:44.445Z,46.81
2017-06-21T12:57:41.102Z,46.44
2017-06-21T13:02:37.166Z,47.15
2017-06-21T13:07:32.370Z,49.07
2017-06-21T13:12:27.734Z,50.51
2017-06-21T13:17:22.959Z,49.10
2017-06-21T13:22:18.688Z,47.91
2017-06-21T13:27:15.087Z,49.10
2017-06-21T13:32:11.986Z,48.39
2017-06-21T13:37:07.336Z,48.32
2017-06-21T13:42:03.156Z,50.48
2017-06-21T13:46:59.504Z,51.26
2017-06-21T13:51:55.041Z,51.57
2017-06-21T13:56:50.833Z,50.82
2017-06-21T14:01:47.849Z,50.31
2017-06-21T14:06:43.388Z,50.14
2017-06-21T14:11:38.851Z,52.40
2017-06-21T14:16:34.020Z,52.69
2017-06-21T14:21:29.727Z,52.23
2017-06-21T14:26:25.241Z,50.96
2017-06-21T14:31:21.951Z,50.48
2017-06-21T14:36:17.419Z,51.75
2017-06-21T14:41:13.197Z,51.93
2017-06-21T14:46:09.365Z,51.48
2017-06-21T14:51:06.763Z,51.18
2017-06-21T14:56:02.393Z,50.77
2017-06-21T15:00:58.145Z,52.72
2017-06-21T15:05:54.159Z,51.93
2017-06-21T15:10:50.104Z,51.35
2017-06-21T15:15:47.160Z,52.42
2017-06-21T15:20:42.903Z,51.28
2017-06-21T15:25:38.803Z,51.84
2017-06-21T15:30:35.925Z,52.72
2017-06-21T15:35:32.553Z,52.62
2017-06-21T15:40:28.241Z,51.93
2017-06-21T15:45:25.174Z,51.97
2017-06-21T15:50:20.517Z,51.93
2017-06-21T15:55:16.522Z,52.52
2017-06-21T16:00:12.554Z,51.75
2017-06-21T16:05:08.970Z,51.35
2017-06-21T16:10:06.921Z,52.33
2017-06-21T16:15:02.332Z,53.03
2017-06-21T16:19:59.332Z,52.06
2017-06-21T16:24:54.981Z,51.67
2017-06-21T16:29:51.576Z,51.28
2017-06-21T16:34:47.633Z,52.13
2017-06-21T16:39:44.648Z,51.75
2017-06-21T16:44:40.438Z,51.93
2017-06-21T16:49:36.467Z,53.42
2017-06-21T16:54:32.733Z,52.15
2017-06-21T16:59:29.971Z,52.55
2017-06-21T17:04:25.550Z,52.84
2017-06-21T17:09:21.647Z,51.87
2017-06-21T17:14:17.706Z,52.42
2017-06-21T17:19:13.604Z,52.52
2017-06-21T17:24:09.625Z,52.91
2017-06-21T17:29:05.945Z,53.13
2017-06-21T17:34:01.894Z,53.69
2017-06-21T17:38:57.769Z,53.49
2017-06-21T17:43:54.688Z,52.62
2017-06-21T17:48:50.507Z,53.49
2017-06-21T17:53:47.527Z,53.00
2017-06-21T17:58:43.224Z,53.75
2017-06-21T18:03:39.284Z,53.75
2017-06-21T18:08:36.053Z,53.75
2017-06-21T18:13:32.720Z,54.14
2017-06-21T18:18:29.390Z,54.63
2017-06-21T18:23:24.893Z,54.60
2017-06-21T18:28:21.749Z,54.99
2017-06-21T18:33:17.705Z,55.77
2017-06-21T18:38:13.751Z,56.15
2017-06-21T18:43:10.035Z,57.22
2017-06-21T18:48:05.908Z,57.61
2017-06-21T18:53:01.668Z,57.68
2017-06-21T18:57:57.641Z,59.61
2017-06-21T19:02:54.626Z,58.65
2017-06-21T19:07:50.211Z,59.91
2017-06-21T19:12:45.861Z,60.17
2017-06-21T19:17:41.733Z,60.46
2017-06-21T19:22:37.652Z,61.91
2017-06-21T19:27:33.299Z,62.85
2017-06-21T19:32:29.094Z,64.11
2017-06-21T19:37:24.902Z,64.07
2017-06-21T19:42:20.750Z,65.62
2017-06-21T19:47:16.963Z,66.60
2017-06-21T19:52:13.061Z,65.88
2017-06-21T19:57:09.804Z,66.66
2017-06-21T20:02:05.747Z,67.14
2017-06-21T20:07:01.688Z,68.40
2017-06-21T20:11:58.684Z,69.37
2017-06-21T20:16:55.602Z,68.08
2017-06-21T20:21:51.195Z,69.53
2017-06-21T20:26:47.188Z,69.33
2017-06-21T20:31:43.409Z,71.17
2017-06-21T20:36:39.165Z,71.23
2017-06-21T20:41:35.151Z,71.04
2017-06-21T20:46:31.482Z,72.00
2017-06-21T20:51:27.410Z,72.26
2017-06-21T20:56:23.258Z,72.94
2017-06-21T21:01:20.582Z,73.42
2017-06-21T21:06:18.223Z,74.29
2017-06-21T21:11:13.921Z,74.38
2017-06-21T21:16:09.890Z,75.06
2017-06-21T21:21:06.754Z,75.70
2017-06-21T21:26:02.369Z,76.57
2017-06-21T21:30:58.363Z,76.86
2017-06-21T21:35:55.055Z,76.47
2017-06-21T21:40:50.712Z,76.86
2017-06-21T21:45:46.628Z,77.40
2017-06-21T21:50:44.511Z,78.56
2017-06-21T21:55:40.002Z,79.43
2017-06-21T22:00:35.943Z,79.52
2017-06-21T22:05:31.799Z,80.74
2017-06-21T22:10:27.708Z,81.12
2017-06-21T22:15:23.518Z,80.10
2017-06-21T22:20:20.349Z,80.00
2017-06-21T22:25:16.020Z,80.06
2017-06-21T22:30:12.468Z,80.83
2017-06-21T22:35:08.360Z,80.83
2017-06-21T22:40:04.135Z,81.85
2017-06-21T22:44:59.989Z,81.76
2017-06-21T22:49:56.284Z,81.66
2017-06-21T22:54:52.060Z,81.37
2017-06-21T22:59:48.787Z,81.37
2017-06-21T23:04:44.458Z,80.89
2017-06-21T23:09:40.455Z,81.02
2017-06-21T23:14:37.691Z,80.74
2017-06-21T23:19:33.094Z,80.16
2017-06-21T23:24:29.163Z,81.02
2017-06-21T23:29:25.068Z,81.27
2017-06-21T23:34:21.012Z,81.09
2017-06-21T23:39:16.837Z,81.18
2017-06-21T23:44:12.808Z,81.27
2017-06-21T23:49:10.688Z,80.79
2017-06-21T23:54:07.259Z,81.85
2017-06-21T23:59:02.732Z,80.99
